createdAt,value
2018-07-12T00:00:14.932Z,17.60
2018-07-12T00:02:48.159Z,17.60
2018-07-12T00:05:21.586Z,17.60
2018-07-12T00:07:54.836Z,17.60
2018-07-12T00:10:28.481Z,17.50
2018-07-12T00:13:01.826Z,17.60
2018-07-12T00:15:35.097Z,17.50
2018-07-12T00:18:08.534Z,17.60
2018-07-12T00:20:41.967Z,17.60
2018-07-12T00:23:15.410Z,17.60
2018-07-12T00:25:48.850Z,17.50
2018-07-12T00:28:22.322Z,17.60
2018-07-12T00:30:55.595Z,17.60
2018-07-12T00:33:29.033Z,17.60
2018-07-12T00:36:02.430Z,17.60
2018-07-12T00:38:35.682Z,17.60
2018-07-12T00:41:08.942Z,17.60
2018-07-12T00:43:42.269Z,17.60
2018-07-12T00:46:15.525Z,17.60
2018-07-12T00:48:48.803Z,17.60
2018-07-12T00:51:22.031Z,17.60
2018-07-12T00:53:55.481Z,17.60
2018-07-12T00:56:28.787Z,17.50
2018-07-12T00:59:02.195Z,17.40
2018-07-12T01:01:35.477Z,17.40
2018-07-12T01:04:08.874Z,17.50
2018-07-12T01:06:42.234Z,17.50
2018-07-12T01:09:15.734Z,17.50
2018-07-12T01:11:49.053Z,17.50
2018-07-12T01:14:22.374Z,17.50
2018-07-12T01:16:55.591Z,17.50
2018-07-12T01:19:29.004Z,17.50
2018-07-12T01:22:02.340Z,17.50
2018-07-12T01:24:35.687Z,17.50
2018-07-12T01:27:09.053Z,17.50
2018-07-12T01:29:42.322Z,17.40
2018-07-12T01:32:15.614Z,17.40
2018-07-12T01:34:48.901Z,17.40
2018-07-12T01:37:22.308Z,17.40
2018-07-12T01:39:55.729Z,17.20
2018-07-12T01:42:29.087Z,17.30
2018-07-12T01:45:02.367Z,17.40
2018-07-12T01:47:35.668Z,17.30
2018-07-12T01:50:09.046Z,17.30
2018-07-12T01:52:42.390Z,17.30
2018-07-12T01:55:15.783Z,17.40
2018-07-12T01:57:49.051Z,17.10
2018-07-12T02:00:22.338Z,17.10
2018-07-12T02:02:55.606Z,17.10
2018-07-12T02:05:28.919Z,16.90
2018-07-12T02:08:02.396Z,17.10
2018-07-12T02:10:35.798Z,17.10
2018-07-12T02:13:09.125Z,17.00
2018-07-12T02:15:42.442Z,17.10
2018-07-12T02:18:15.838Z,16.90
2018-07-12T02:20:49.235Z,17.00
2018-07-12T02:23:22.570Z,16.90
2018-07-12T02:28:29.641Z,16.90
2018-07-12T02:31:03.072Z,16.70
2018-07-12T02:33:36.475Z,16.90
2018-07-12T02:36:09.811Z,16.90
2018-07-12T02:38:43.235Z,16.80
2018-07-12T02:41:16.579Z,16.90
2018-07-12T02:43:50.044Z,17.00
2018-07-12T02:46:23.458Z,16.90
2018-07-12T02:48:56.882Z,16.90
2018-07-12T02:51:30.251Z,16.90
2018-07-12T02:54:03.483Z,16.80
2018-07-12T02:56:36.794Z,16.80
2018-07-12T02:59:10.114Z,16.80
2018-07-12T03:01:43.518Z,16.80
2018-07-12T03:04:16.764Z,16.80
2018-07-12T03:06:50.363Z,16.80
2018-07-12T03:09:23.783Z,16.80
2018-07-12T03:11:57.192Z,16.60
2018-07-12T03:14:30.450Z,16.70
2018-07-12T03:17:03.863Z,16.80
2018-07-12T03:19:37.125Z,16.80
2018-07-12T03:22:10.518Z,16.80
2018-07-12T03:24:43.803Z,16.70
2018-07-12T03:29:50.785Z,16.80
2018-07-12T03:32:24.062Z,16.70
2018-07-12T03:37:31.095Z,16.70
2018-07-12T03:40:04.386Z,16.80
2018-07-12T03:42:37.729Z,16.80
2018-07-12T03:47:44.861Z,16.70
2018-07-12T03:50:18.311Z,16.70
2018-07-12T03:52:51.573Z,16.70
2018-07-12T03:55:25.087Z,16.70
2018-07-12T03:57:58.331Z,16.60
2018-07-12T04:00:31.898Z,16.50
2018-07-12T04:03:05.291Z,16.60
2018-07-12T04:05:38.606Z,16.60
2018-07-12T04:08:11.958Z,16.60
2018-07-12T04:10:45.227Z,16.60
2018-07-12T04:13:18.623Z,16.60
2018-07-12T04:15:51.865Z,16.60
2018-07-12T04:18:25.267Z,16.70
2018-07-12T04:20:58.613Z,16.70
2018-07-12T04:23:31.890Z,16.70
2018-07-12T04:26:05.219Z,16.70
2018-07-12T04:28:38.497Z,16.70
2018-07-12T04:31:11.945Z,16.60
2018-07-12T04:33:45.182Z,16.60
2018-07-12T04:36:18.439Z,16.60
2018-07-12T04:38:51.801Z,16.70
2018-07-12T04:41:25.254Z,16.70
2018-07-12T04:43:58.518Z,16.70
2018-07-12T04:46:31.805Z,16.60
2018-07-12T04:49:05.208Z,16.70
2018-07-12T04:51:38.738Z,16.70
2018-07-12T04:54:12.190Z,16.70
2018-07-12T04:56:45.456Z,16.70
2018-07-12T04:59:19.590Z,16.70
2018-07-12T05:07:00.010Z,16.60
2018-07-12T05:09:33.230Z,16.50
2018-07-12T05:12:06.577Z,16.60
2018-07-12T05:14:39.766Z,16.70
2018-07-12T05:17:13.325Z,16.60
2018-07-12T05:22:20.289Z,16.60
2018-07-12T05:24:53.618Z,16.50
2018-07-12T05:27:26.938Z,16.60
2018-07-12T05:30:00.364Z,16.60
2018-07-12T05:32:33.836Z,16.70
2018-07-12T05:35:07.190Z,16.70
2018-07-12T05:37:41.518Z,16.80
2018-07-12T05:40:15.853Z,16.80
2018-07-12T05:42:50.187Z,16.70
2018-07-12T05:45:24.498Z,16.80
2018-07-12T05:47:58.794Z,16.80
2018-07-12T05:50:33.369Z,16.70
2018-07-12T05:53:07.566Z,16.70
2018-07-12T05:55:42.211Z,16.60
2018-07-12T05:58:16.422Z,16.80
2018-07-12T06:00:50.909Z,16.80
2018-07-12T06:03:25.186Z,16.90
2018-07-12T06:05:59.557Z,16.90
2018-07-12T06:08:33.766Z,17.10
2018-07-12T06:11:08.050Z,17.10
2018-07-12T06:13:42.474Z,17.20
2018-07-12T06:16:16.886Z,17.20
2018-07-12T06:18:51.102Z,17.20
2018-07-12T06:21:25.462Z,17.30
2018-07-12T06:23:59.662Z,17.20
2018-07-12T06:26:33.970Z,17.30
2018-07-12T06:29:08.403Z,17.10
2018-07-12T06:31:42.866Z,17.10
2018-07-12T06:34:17.048Z,17.20
2018-07-12T06:36:51.413Z,17.50
2018-07-12T06:39:25.555Z,17.60
2018-07-12T06:41:59.841Z,17.60
2018-07-12T06:44:34.137Z,17.70
2018-07-12T06:47:08.564Z,17.70
2018-07-12T06:49:42.854Z,17.80
2018-07-12T06:52:17.006Z,17.70
2018-07-12T06:54:51.277Z,17.60
2018-07-12T06:57:25.467Z,17.70
2018-07-12T06:59:59.772Z,17.70
2018-07-12T07:02:34.174Z,17.80
2018-07-12T07:05:08.655Z,18.00
2018-07-12T07:07:42.867Z,18.10
2018-07-12T07:10:17.254Z,18.00
2018-07-12T07:12:51.540Z,18.00
2018-07-12T07:15:25.839Z,18.10
2018-07-12T07:18:00.255Z,18.00
2018-07-12T07:20:34.571Z,18.30
2018-07-12T07:23:08.927Z,18.30
2018-07-12T07:25:43.415Z,18.40
2018-07-12T07:28:17.582Z,18.40
2018-07-12T07:30:51.914Z,18.40
2018-07-12T07:33:26.455Z,18.50
2018-07-12T07:36:00.698Z,18.60
2018-07-12T07:38:34.930Z,18.70
2018-07-12T07:41:09.238Z,18.80
2018-07-12T07:43:43.759Z,18.90
2018-07-12T07:46:17.905Z,19.00
2018-07-12T07:48:52.225Z,19.10
2018-07-12T07:51:26.580Z,19.10
2018-07-12T07:54:00.918Z,19.20
2018-07-12T07:56:35.461Z,19.30
2018-07-12T07:59:09.799Z,19.40
2018-07-12T08:01:44.180Z,19.60
2018-07-12T08:04:18.499Z,19.50
2018-07-12T08:06:52.961Z,19.60
2018-07-12T08:09:27.302Z,19.70
2018-07-12T08:12:01.660Z,19.80
2018-07-12T08:14:36.061Z,19.90
2018-07-12T08:17:10.458Z,20.00
2018-07-12T08:19:44.757Z,19.90
2018-07-12T08:22:19.108Z,20.00
2018-07-12T08:24:53.415Z,20.20
2018-07-12T08:27:27.686Z,20.20
2018-07-12T08:30:01.991Z,20.20
2018-07-12T08:32:36.223Z,20.30
2018-07-12T08:35:10.499Z,20.50
2018-07-12T08:37:44.900Z,20.50
2018-07-12T08:40:19.094Z,20.60
2018-07-12T08:42:53.440Z,20.80
2018-07-12T08:45:27.787Z,20.80
2018-07-12T08:48:02.145Z,21.00
2018-07-12T08:50:36.602Z,21.10
2018-07-12T08:53:10.935Z,21.30
2018-07-12T08:55:45.090Z,21.40
2018-07-12T08:58:19.282Z,21.40
2018-07-12T09:00:53.534Z,21.50
2018-07-12T09:03:27.938Z,21.70
2018-07-12T09:06:02.318Z,21.70
2018-07-12T09:08:36.526Z,21.90
2018-07-12T09:13:44.846Z,22.00
2018-07-12T09:16:19.192Z,22.10
2018-07-12T09:18:53.501Z,22.30
2018-07-12T09:21:27.892Z,22.20
2018-07-12T09:24:02.195Z,22.10
2018-07-12T09:29:10.737Z,22.70
2018-07-12T09:31:44.911Z,22.70
2018-07-12T09:34:19.210Z,22.50
2018-07-12T09:36:53.575Z,22.90
2018-07-12T09:39:27.872Z,23.30
2018-07-12T09:42:02.139Z,23.40
2018-07-12T09:44:36.474Z,23.40
2018-07-12T09:47:10.939Z,23.00
2018-07-12T09:49:45.209Z,23.30
2018-07-12T09:52:25.095Z,23.30
2018-07-12T09:54:59.365Z,23.40
2018-07-12T09:57:44.989Z,23.60
2018-07-12T10:00:23.540Z,23.60
2018-07-12T10:03:03.379Z,24.10
2018-07-12T10:05:42.869Z,23.90
2018-07-12T10:08:22.693Z,23.60
2018-07-12T10:11:02.210Z,23.90
2018-07-12T10:13:41.638Z,23.70
2018-07-12T10:16:21.241Z,24.00
2018-07-12T10:18:55.410Z,24.30
2018-07-12T10:21:30.167Z,24.40
2018-07-12T10:24:04.702Z,24.30
2018-07-12T10:26:38.925Z,24.50
2018-07-12T10:29:13.202Z,24.70
2018-07-12T10:31:47.474Z,24.60
2018-07-12T10:34:21.731Z,24.30
2018-07-12T10:36:56.050Z,24.10
2018-07-12T10:39:30.350Z,24.30
2018-07-12T10:42:04.614Z,24.60
2018-07-12T10:44:38.926Z,25.20
2018-07-12T10:47:13.197Z,24.90
2018-07-12T10:49:47.517Z,25.30
2018-07-12T10:52:21.786Z,25.30
2018-07-12T10:54:56.130Z,25.30
2018-07-12T10:57:30.357Z,25.00
2018-07-12T11:00:07.014Z,24.60
2018-07-12T11:02:41.243Z,24.30
2018-07-12T11:05:15.557Z,24.00
2018-07-12T11:07:50.050Z,23.90
2018-07-12T11:10:24.395Z,23.80
2018-07-12T11:13:15.890Z,23.60
2018-07-12T11:15:50.162Z,23.60
2018-07-12T11:18:24.449Z,23.40
2018-07-12T11:20:58.723Z,23.40
2018-07-12T11:23:33.042Z,23.40
2018-07-12T11:26:07.346Z,24.10
2018-07-12T11:28:42.203Z,24.80
2018-07-12T11:31:16.420Z,25.00
2018-07-12T11:33:51.453Z,25.40
2018-07-12T11:36:25.708Z,25.70
2018-07-12T11:38:59.903Z,26.10
2018-07-12T11:41:34.148Z,26.90
2018-07-12T11:44:08.361Z,26.00
2018-07-12T11:46:42.926Z,25.80
2018-07-12T11:49:17.075Z,25.30
2018-07-12T11:51:51.486Z,25.10
2018-07-12T11:54:25.796Z,24.90
2018-07-12T11:57:00.067Z,25.50
2018-07-12T11:59:34.386Z,26.10
2018-07-12T12:02:08.764Z,26.40
2018-07-12T12:04:43.064Z,26.80
2018-07-12T12:07:17.457Z,27.10
2018-07-12T12:09:51.730Z,27.20
2018-07-12T12:12:26.307Z,27.20
2018-07-12T12:15:00.893Z,27.20
2018-07-12T12:17:35.216Z,27.30
2018-07-12T12:20:09.521Z,27.50
2018-07-12T12:25:18.107Z,27.10
2018-07-12T12:27:52.539Z,27.10
2018-07-12T12:30:26.877Z,27.30
2018-07-12T12:33:01.118Z,27.70
2018-07-12T12:35:35.586Z,27.70
2018-07-12T12:38:09.898Z,27.80
2018-07-12T12:40:44.074Z,28.30
2018-07-12T12:43:18.461Z,28.40
2018-07-12T12:45:52.750Z,28.60
2018-07-12T12:48:26.956Z,28.50
2018-07-12T12:51:01.274Z,27.90
2018-07-12T12:53:35.537Z,27.60
2018-07-12T12:56:09.778Z,27.20
2018-07-12T12:58:44.042Z,27.10
2018-07-12T13:01:18.322Z,26.90
2018-07-12T13:03:52.494Z,26.70
2018-07-12T13:06:26.687Z,26.60
2018-07-12T13:09:01.053Z,26.40
2018-07-12T13:11:35.323Z,26.30
2018-07-12T13:14:09.502Z,26.30
2018-07-12T13:16:43.790Z,26.20
2018-07-12T13:19:18.065Z,26.20
2018-07-12T13:21:52.494Z,26.30
2018-07-12T13:24:26.807Z,26.30
2018-07-12T13:27:01.109Z,26.20
2018-07-12T13:29:35.407Z,26.20
2018-07-12T13:32:09.826Z,26.20
2018-07-12T13:34:44.280Z,26.20
2018-07-12T13:37:18.549Z,26.30
2018-07-12T13:39:52.858Z,26.60
2018-07-12T13:42:27.190Z,27.10
2018-07-12T13:45:01.428Z,26.90
2018-07-12T13:47:35.727Z,26.50
2018-07-12T13:50:10.040Z,26.40
2018-07-12T13:52:44.425Z,26.10
2018-07-12T13:55:18.622Z,26.20
2018-07-12T13:57:52.830Z,25.90
2018-07-12T14:00:27.129Z,26.00
2018-07-12T14:03:01.558Z,25.90
2018-07-12T14:05:35.901Z,25.90
2018-07-12T14:08:10.146Z,25.60
2018-07-12T14:10:44.469Z,25.60
2018-07-12T14:13:18.818Z,25.00
2018-07-12T14:15:53.092Z,25.30
2018-07-12T14:18:27.365Z,25.30
2018-07-12T14:21:01.546Z,25.40
2018-07-12T14:23:35.855Z,25.30
2018-07-12T14:26:10.338Z,25.30
2018-07-12T14:28:44.775Z,25.20
2018-07-12T14:31:19.077Z,25.00
2018-07-12T14:33:53.297Z,25.20
2018-07-12T14:36:27.590Z,25.30
2018-07-12T14:39:01.774Z,25.30
2018-07-12T14:41:36.357Z,25.30
2018-07-12T14:44:10.530Z,25.40
2018-07-12T14:46:44.826Z,25.40
2018-07-12T14:49:19.314Z,25.20
2018-07-12T14:51:53.570Z,25.40
2018-07-12T14:54:27.909Z,25.60
2018-07-12T14:57:02.184Z,25.50
2018-07-12T14:59:37.095Z,25.40
2018-07-12T15:02:11.273Z,25.50
2018-07-12T15:04:45.452Z,25.60
2018-07-12T15:07:19.749Z,25.40
2018-07-12T15:09:54.047Z,25.50
2018-07-12T15:12:28.455Z,25.00
2018-07-12T15:15:02.760Z,25.30
2018-07-12T15:17:37.055Z,25.20
2018-07-12T15:20:11.555Z,25.10
2018-07-12T15:22:45.934Z,25.10
2018-07-12T15:25:20.154Z,25.20
2018-07-12T15:27:54.512Z,25.10
2018-07-12T15:33:02.838Z,25.00
2018-07-12T15:35:37.106Z,25.30
2018-07-12T15:38:11.386Z,24.80
2018-07-12T15:40:45.678Z,24.50
2018-07-12T15:43:20.023Z,24.80
2018-07-12T15:45:54.342Z,24.50
2018-07-12T15:48:28.642Z,24.30
2018-07-12T15:53:37.363Z,24.60
2018-07-12T15:56:11.541Z,24.30
2018-07-12T15:58:45.859Z,24.40
2018-07-12T16:01:20.161Z,24.50
2018-07-12T16:03:54.413Z,24.50
2018-07-12T16:06:28.718Z,24.50
2018-07-12T16:09:03.139Z,24.30
2018-07-12T16:11:37.587Z,24.30
2018-07-12T16:14:11.861Z,24.50
2018-07-12T16:16:46.022Z,24.40
2018-07-12T16:19:20.471Z,24.30
2018-07-12T16:21:54.746Z,24.50
2018-07-12T16:24:28.998Z,24.60
2018-07-12T16:27:03.384Z,24.60
2018-07-12T16:29:37.685Z,24.90
2018-07-12T16:32:11.959Z,24.50
2018-07-12T16:34:46.375Z,24.50
2018-07-12T16:37:20.750Z,24.60
2018-07-12T16:42:29.085Z,24.50
2018-07-12T16:45:03.351Z,24.50
2018-07-12T16:47:37.762Z,24.30
2018-07-12T16:50:12.083Z,24.40
2018-07-12T16:52:46.405Z,24.40
2018-07-12T16:55:20.614Z,24.30
2018-07-12T16:57:54.889Z,24.40
2018-07-12T17:00:29.328Z,24.50
2018-07-12T17:03:03.602Z,24.40
2018-07-12T17:05:37.844Z,24.30
2018-07-12T17:08:12.218Z,24.20
2018-07-12T17:10:46.525Z,24.30
2018-07-12T17:13:20.865Z,24.30
2018-07-12T17:15:55.214Z,24.10
2018-07-12T17:18:29.590Z,24.00
2018-07-12T17:21:03.854Z,24.00
2018-07-12T17:23:38.162Z,24.10
2018-07-12T17:26:12.389Z,24.10
2018-07-12T17:28:46.718Z,24.00
2018-07-12T17:31:21.016Z,24.00
2018-07-12T17:33:55.435Z,24.00
2018-07-12T17:36:29.724Z,23.90
2018-07-12T17:39:05.294Z,24.00
2018-07-12T17:41:39.581Z,24.00
2018-07-12T17:44:13.818Z,24.00
2018-07-12T17:46:48.098Z,23.90
2018-07-12T17:49:22.525Z,23.90
2018-07-12T17:51:56.921Z,23.90
2018-07-12T17:54:31.194Z,23.90
2018-07-12T17:57:05.694Z,23.80
2018-07-12T17:59:39.902Z,23.60
2018-07-12T18:02:14.182Z,23.70
2018-07-12T18:04:48.407Z,23.80
2018-07-12T18:07:22.819Z,23.80
2018-07-12T18:09:56.983Z,23.60
2018-07-12T18:12:31.254Z,23.60
2018-07-12T18:15:05.550Z,23.80
2018-07-12T18:17:39.863Z,23.90
2018-07-12T18:22:48.627Z,23.80
2018-07-12T18:25:23.081Z,23.80
2018-07-12T18:27:57.313Z,23.90
2018-07-12T18:30:31.561Z,23.90
2018-07-12T18:33:06.438Z,23.90
2018-07-12T18:35:40.749Z,23.90
2018-07-12T18:38:15.038Z,23.90
2018-07-12T18:40:49.254Z,23.90
2018-07-12T18:43:23.478Z,23.90
2018-07-12T18:45:58.193Z,23.90
2018-07-12T18:48:32.498Z,23.80
2018-07-12T18:51:06.848Z,23.60
2018-07-12T18:53:41.191Z,23.70
2018-07-12T18:56:15.515Z,23.70
2018-07-12T18:58:49.911Z,23.60
2018-07-12T19:01:24.223Z,23.60
2018-07-12T19:03:58.455Z,23.50
2018-07-12T19:06:32.767Z,23.10
2018-07-12T19:09:08.063Z,23.20
2018-07-12T19:11:42.454Z,23.30
2018-07-12T19:14:16.750Z,23.30
2018-07-12T19:16:51.062Z,23.30
2018-07-12T19:19:25.358Z,23.20
2018-07-12T19:21:59.697Z,23.20
2018-07-12T19:24:33.913Z,23.20
2018-07-12T19:27:08.225Z,23.10
2018-07-12T19:29:42.554Z,23.00
2018-07-12T19:32:16.933Z,23.00
2018-07-12T19:34:51.307Z,22.90
2018-07-12T19:37:25.638Z,22.80
2018-07-12T19:40:00.157Z,22.80
2018-07-12T19:42:34.428Z,22.70
2018-07-12T19:45:08.765Z,22.60
2018-07-12T19:47:43.093Z,22.50
2018-07-12T19:50:17.282Z,22.50
2018-07-12T19:52:51.741Z,22.60
2018-07-12T19:55:26.049Z,22.40
2018-07-12T19:58:00.261Z,22.30
2018-07-12T20:00:35.446Z,22.20
2018-07-12T20:03:09.873Z,22.20
2018-07-12T20:05:44.181Z,22.10
2018-07-12T20:08:18.817Z,22.00
2018-07-12T20:13:27.366Z,21.90
2018-07-12T20:16:01.731Z,21.80
2018-07-12T20:18:36.054Z,21.80
2018-07-12T20:21:10.351Z,21.80
2018-07-12T20:23:44.710Z,21.70
2018-07-12T20:26:19.039Z,21.50
2018-07-12T20:28:53.550Z,21.50
2018-07-12T20:31:27.754Z,21.50
2018-07-12T20:34:01.970Z,21.40
2018-07-12T20:36:36.111Z,21.40
2018-07-12T20:39:10.513Z,21.20
2018-07-12T20:41:44.693Z,21.30
2018-07-12T20:44:18.979Z,21.20
2018-07-12T20:46:53.163Z,21.20
2018-07-12T20:49:27.573Z,21.20
2018-07-12T20:52:01.918Z,21.20
2018-07-12T20:54:36.253Z,21.10
2018-07-12T20:57:10.573Z,21.20
2018-07-12T20:59:44.878Z,21.20
2018-07-12T21:02:19.147Z,21.00
2018-07-12T21:04:53.514Z,21.10
2018-07-12T21:07:27.777Z,21.20
2018-07-12T21:10:02.111Z,21.20
2018-07-12T21:12:36.387Z,21.10
2018-07-12T21:15:10.752Z,21.10
2018-07-12T21:17:45.054Z,21.20
2018-07-12T21:20:22.298Z,21.10
2018-07-12T21:22:56.804Z,21.20
2018-07-12T21:25:31.038Z,20.90
2018-07-12T21:28:05.594Z,21.00
2018-07-12T21:30:39.943Z,21.00
2018-07-12T21:33:14.306Z,21.10
2018-07-12T21:35:48.599Z,21.00
2018-07-12T21:38:22.958Z,21.10
2018-07-12T21:40:57.338Z,21.00
2018-07-12T21:43:31.625Z,20.90
2018-07-12T21:46:06.250Z,21.00
2018-07-12T21:48:40.441Z,21.00
2018-07-12T21:51:14.728Z,21.00
2018-07-12T21:53:48.989Z,21.00
2018-07-12T21:56:23.198Z,20.90
2018-07-12T21:58:57.413Z,20.80
2018-07-12T22:01:31.794Z,20.60
2018-07-12T22:04:06.051Z,20.80
2018-07-12T22:07:55.030Z,20.80
2018-07-12T22:10:29.318Z,20.60
2018-07-12T22:13:03.646Z,20.70
2018-07-12T22:15:37.955Z,20.70
2018-07-12T22:20:46.517Z,20.60
2018-07-12T22:23:20.754Z,20.60
2018-07-12T22:28:29.002Z,20.40
2018-07-12T22:31:03.229Z,20.20
2018-07-12T22:33:37.566Z,20.20
2018-07-12T22:36:11.927Z,20.20
2018-07-12T22:38:46.209Z,20.10
2018-07-12T22:41:20.500Z,20.20
2018-07-12T22:43:54.706Z,20.10
2018-07-12T22:46:29.018Z,20.10
2018-07-12T22:49:03.353Z,20.00
2018-07-12T22:51:37.494Z,19.90
2018-07-12T22:54:11.727Z,19.70
2018-07-12T22:56:45.874Z,19.70
2018-07-12T22:59:20.316Z,19.60
2018-07-12T23:01:54.498Z,19.60
2018-07-12T23:04:28.972Z,19.60
2018-07-12T23:07:03.384Z,19.60
2018-07-12T23:09:37.688Z,19.40
2018-07-12T23:12:11.991Z,19.20
2018-07-12T23:14:46.388Z,19.30
2018-07-12T23:17:20.909Z,19.40
2018-07-12T23:19:55.250Z,19.30
2018-07-12T23:22:29.585Z,19.20
2018-07-12T23:25:03.879Z,19.20
2018-07-12T23:27:38.253Z,19.10
2018-07-12T23:30:12.591Z,19.10
2018-07-12T23:32:46.973Z,18.90
2018-07-12T23:35:21.233Z,18.90
2018-07-12T23:37:55.665Z,18.90
2018-07-12T23:40:30.047Z,18.80
2018-07-12T23:43:04.356Z,18.80
2018-07-12T23:45:38.735Z,18.60
2018-07-12T23:48:13.034Z,18.60
2018-07-12T23:50:47.407Z,18.60
2018-07-12T23:53:21.718Z,18.60
2018-07-12T23:55:56.039Z,18.50
2018-07-12T23:58:30.323Z,18.50
